createdAt,value
2018-07-01T00:00:15.843Z,52.84
2018-07-01T00:01:15.802Z,52.94
2018-07-01T00:02:15.824Z,53.13
2018-07-01T00:03:15.843Z,52.65
2018-07-01T00:04:15.867Z,52.65
2018-07-01T00:05:15.884Z,52.65
2018-07-01T00:06:15.908Z,51.88
2018-07-01T00:07:15.930Z,51.79
2018-07-01T00:08:15.952Z,51.40
2018-07-01T00:09:15.971Z,52.08
2018-07-01T00:10:15.991Z,51.40
2018-07-01T00:11:16.015Z,51.50
2018-07-01T00:12:16.033Z,51.59
2018-07-01T00:13:16.059Z,51.50
2018-07-01T00:14:16.077Z,51.40
2018-07-01T00:15:16.097Z,51.88
2018-07-01T00:16:16.120Z,51.59
2018-07-01T00:17:16.145Z,51.59
2018-07-01T00:18:16.163Z,51.98
2018-07-01T00:19:16.181Z,52.17
2018-07-01T00:20:16.206Z,52.75
2018-07-01T00:21:16.226Z,52.94
2018-07-01T00:22:16.246Z,53.23
2018-07-01T00:23:16.265Z,53.13
2018-07-01T00:24:16.299Z,53.70
2018-07-01T00:25:16.309Z,53.58
2018-07-01T00:26:16.331Z,53.97
2018-07-01T00:27:16.350Z,53.97
2018-07-01T00:28:16.372Z,53.87
2018-07-01T00:29:16.397Z,53.68
2018-07-01T00:30:16.413Z,54.06
2018-07-01T00:31:16.434Z,54.16
2018-07-01T00:32:16.453Z,54.06
2018-07-01T00:33:16.480Z,53.68
2018-07-01T00:34:16.499Z,52.81
2018-07-01T00:35:16.520Z,53.01
2018-07-01T00:36:16.541Z,53.68
2018-07-01T00:37:16.559Z,53.20
2018-07-01T00:38:16.583Z,53.39
2018-07-01T00:39:16.615Z,53.20
2018-07-01T00:40:16.623Z,53.20
2018-07-01T00:41:16.644Z,53.20
2018-07-01T00:42:16.666Z,52.81
2018-07-01T00:43:16.686Z,52.91
2018-07-01T00:44:16.707Z,52.53
2018-07-01T00:45:16.725Z,51.86
2018-07-01T00:46:16.746Z,51.37
2018-07-01T00:47:16.768Z,52.17
2018-07-01T00:48:16.789Z,51.86
2018-07-01T00:49:16.813Z,53.01
2018-07-01T00:50:16.833Z,52.62
2018-07-01T00:51:16.852Z,53.39
2018-07-01T00:52:16.874Z,53.20
2018-07-01T00:53:16.893Z,52.91
2018-07-01T00:54:16.914Z,52.81
2018-07-01T00:55:16.935Z,53.30
2018-07-01T00:56:16.957Z,53.68
2018-07-01T00:57:16.978Z,53.68
2018-07-01T00:58:16.998Z,53.68
2018-07-01T00:59:17.020Z,53.01
2018-07-01T01:00:17.042Z,52.53
2018-07-01T01:01:17.059Z,53.58
2018-07-01T01:02:17.083Z,53.11
2018-07-01T01:03:17.105Z,52.89
2018-07-01T01:04:17.124Z,53.56
2018-07-01T01:05:17.145Z,53.56
2018-07-01T01:06:17.165Z,53.56
2018-07-01T01:07:17.185Z,54.04
2018-07-01T01:08:17.205Z,54.04
2018-07-01T01:09:17.226Z,53.56
2018-07-01T01:10:17.247Z,52.98
2018-07-01T01:11:17.269Z,52.89
2018-07-01T01:12:17.288Z,53.85
2018-07-01T01:13:17.307Z,53.56
2018-07-01T01:14:17.329Z,53.75
2018-07-01T01:15:17.352Z,53.85
2018-07-01T01:16:17.369Z,53.94
2018-07-01T01:17:17.391Z,53.94
2018-07-01T01:18:17.412Z,53.85
2018-07-01T01:19:17.433Z,54.04
2018-07-01T01:20:17.453Z,53.75
2018-07-01T01:21:17.473Z,54.13
2018-07-01T01:22:17.492Z,54.23
2018-07-01T01:23:17.516Z,54.52
2018-07-01T01:24:17.536Z,54.90
2018-07-01T01:25:17.557Z,55.38
2018-07-01T01:26:17.579Z,54.71
2018-07-01T01:27:17.599Z,55.47
2018-07-01T01:28:17.620Z,55.26
2018-07-01T01:29:17.651Z,55.35
2018-07-01T01:30:17.660Z,55.16
2018-07-01T01:31:17.680Z,56.31
2018-07-01T01:32:17.702Z,55.35
2018-07-01T01:33:17.725Z,55.64
2018-07-01T01:34:17.742Z,56.22
2018-07-01T01:35:17.763Z,56.02
2018-07-01T01:36:17.788Z,55.45
2018-07-01T01:37:17.804Z,56.12
2018-07-01T01:38:17.824Z,56.12
2018-07-01T01:39:17.844Z,56.22
2018-07-01T01:40:17.866Z,56.41
2018-07-01T01:41:17.886Z,56.60
2018-07-01T01:42:17.904Z,56.31
2018-07-01T01:43:17.926Z,56.22
2018-07-01T01:44:17.946Z,56.41
2018-07-01T01:45:17.970Z,57.06
2018-07-01T01:46:17.987Z,56.96
2018-07-01T01:47:18.010Z,56.96
2018-07-01T01:48:18.029Z,56.98
2018-07-01T01:49:18.048Z,56.86
2018-07-01T01:50:18.073Z,57.63
2018-07-01T01:51:18.091Z,57.82
2018-07-01T01:52:18.108Z,57.43
2018-07-01T01:53:18.132Z,56.76
2018-07-01T01:54:18.153Z,57.34
2018-07-01T02:23:49.572Z,59.06
2018-07-01T02:24:49.564Z,58.46
2018-07-01T02:26:42.478Z,58.27
2018-07-01T02:27:42.491Z,58.56
2018-07-01T02:29:35.426Z,58.75
2018-07-01T02:30:35.419Z,59.52
2018-07-01T02:32:28.342Z,59.04
2018-07-01T02:33:28.352Z,58.75
2018-07-01T02:35:21.357Z,59.04
2018-07-01T02:36:21.289Z,59.13
2018-07-01T02:38:14.229Z,59.42
2018-07-01T02:39:14.221Z,59.61
2018-07-01T02:41:07.640Z,59.52
2018-07-01T02:42:07.654Z,59.61
2018-07-01T02:44:00.598Z,59.80
2018-07-01T02:45:00.592Z,59.71
2018-07-01T02:46:53.517Z,60.19
2018-07-01T02:47:53.532Z,60.38
2018-07-01T02:49:46.475Z,60.86
2018-07-01T02:50:46.467Z,61.02
2018-07-01T02:52:39.393Z,61.21
2018-07-01T02:53:39.477Z,61.31
2018-07-01T02:55:32.379Z,62.36
2018-07-01T02:56:32.355Z,62.74
2018-07-01T02:58:25.297Z,61.79
2018-07-01T02:59:25.287Z,61.79
2018-07-01T03:01:18.216Z,62.46
2018-07-01T03:02:18.230Z,63.13
2018-07-01T03:04:11.184Z,62.26
2018-07-01T03:05:11.172Z,63.22
2018-07-01T03:07:04.095Z,63.22
2018-07-01T03:08:04.111Z,63.03
2018-07-01T03:09:57.050Z,62.93
2018-07-01T03:10:57.055Z,62.46
2018-07-01T03:12:49.976Z,61.50
2018-07-01T03:13:49.988Z,61.79
2018-07-01T03:15:42.938Z,62.55
2018-07-01T03:16:42.928Z,62.07
2018-07-01T03:18:35.882Z,63.13
2018-07-01T03:19:35.874Z,63.70
2018-07-01T03:21:28.802Z,63.51
2018-07-01T03:22:28.813Z,63.42
2018-07-01T03:24:21.760Z,62.55
2018-07-01T03:25:21.753Z,62.36
2018-07-01T03:27:14.682Z,61.98
2018-07-01T03:28:14.693Z,61.11
2018-07-01T03:30:07.639Z,61.79
2018-07-01T03:31:07.632Z,62.55
2018-07-01T03:33:00.561Z,62.46
2018-07-01T03:34:00.575Z,61.31
2018-07-01T03:35:53.522Z,63.13
2018-07-01T03:36:53.517Z,62.07
2018-07-01T03:38:46.465Z,61.79
2018-07-01T03:39:46.463Z,61.88
2018-07-01T03:41:39.390Z,61.98
2018-07-01T03:42:39.401Z,61.11
2018-07-01T03:44:32.349Z,60.73
2018-07-01T03:45:32.344Z,61.31
2018-07-01T03:47:25.271Z,61.31
2018-07-01T03:48:25.285Z,61.40
2018-07-01T03:50:18.303Z,61.21
2018-07-01T03:51:18.222Z,61.31
2018-07-01T03:53:11.153Z,60.73
2018-07-01T03:54:11.165Z,60.35
2018-07-01T03:56:04.108Z,60.64
2018-07-01T03:57:04.102Z,60.73
2018-07-01T03:58:04.122Z,60.47
2018-07-01T03:59:04.140Z,60.47
2018-07-01T04:00:04.161Z,60.28
2018-07-01T04:01:04.184Z,60.09
2018-07-01T04:02:04.201Z,60.47
2018-07-01T04:03:04.218Z,60.09
2018-07-01T04:04:04.240Z,60.38
2018-07-01T04:05:04.260Z,60.67
2018-07-01T04:06:04.276Z,60.76
2018-07-01T04:07:04.299Z,61.05
2018-07-01T04:08:04.321Z,61.40
2018-07-01T04:09:04.346Z,60.64
2018-07-01T04:10:04.358Z,60.76
2018-07-01T04:11:04.387Z,60.09
2018-07-01T04:12:04.397Z,61.53
2018-07-01T04:13:04.417Z,61.63
2018-07-01T04:14:04.436Z,61.24
2018-07-01T04:15:04.455Z,62.87
2018-07-01T04:16:04.477Z,62.10
2018-07-01T04:17:04.496Z,62.26
2018-07-01T04:18:04.516Z,63.35
2018-07-01T04:19:04.533Z,62.59
2018-07-01T04:20:04.552Z,62.93
2018-07-01T04:21:04.573Z,63.03
2018-07-01T04:22:04.593Z,61.72
2018-07-01T04:23:04.613Z,62.39
2018-07-01T04:24:04.633Z,63.16
2018-07-01T04:25:04.651Z,63.45
2018-07-01T04:26:04.671Z,62.59
2018-07-01T04:27:04.692Z,62.96
2018-07-01T04:28:04.710Z,63.92
2018-07-01T04:29:04.728Z,63.35
2018-07-01T04:30:04.751Z,63.35
2018-07-01T04:31:04.813Z,63.83
2018-07-01T04:32:04.789Z,62.68
2018-07-01T04:33:04.808Z,62.20
2018-07-01T04:34:04.830Z,61.91
2018-07-01T04:35:04.846Z,62.30
2018-07-01T04:36:04.868Z,62.49
2018-07-01T04:37:04.888Z,62.10
2018-07-01T04:38:04.911Z,61.43
2018-07-01T04:39:04.933Z,61.34
2018-07-01T04:40:04.950Z,61.18
2018-07-01T04:41:04.966Z,61.46
2018-07-01T04:42:04.990Z,60.99
2018-07-01T04:43:05.008Z,60.86
2018-07-01T04:44:05.028Z,61.46
2018-07-01T04:45:05.049Z,61.08
2018-07-01T04:46:05.067Z,61.18
2018-07-01T04:47:05.086Z,60.89
2018-07-01T04:48:05.111Z,60.99
2018-07-01T04:49:05.125Z,60.50
2018-07-01T04:50:05.152Z,60.70
2018-07-01T04:51:05.165Z,60.70
2018-07-01T04:52:05.187Z,60.60
2018-07-01T04:53:05.202Z,60.60
2018-07-01T04:54:05.227Z,60.99
2018-07-01T04:55:05.284Z,60.89
2018-07-01T04:56:05.271Z,60.41
2018-07-01T04:57:05.287Z,60.60
2018-07-01T04:58:05.305Z,60.60
2018-07-01T04:59:05.324Z,60.31
2018-07-01T05:00:05.347Z,60.99
2018-07-01T05:01:05.361Z,61.18
2018-07-01T05:02:05.458Z,61.27
2018-07-01T05:03:05.405Z,61.37
2018-07-01T05:04:05.434Z,61.08
2018-07-01T05:05:05.444Z,61.21
2018-07-01T05:06:05.465Z,61.02
2018-07-01T05:07:05.483Z,60.92
2018-07-01T05:08:05.503Z,60.72
2018-07-01T05:09:05.522Z,60.53
2018-07-01T05:10:05.546Z,61.11
2018-07-01T05:11:05.564Z,60.25
2018-07-01T05:12:05.584Z,60.82
2018-07-01T05:13:05.604Z,60.35
2018-07-01T05:14:05.624Z,60.35
2018-07-01T05:15:05.644Z,60.15
2018-07-01T05:16:05.662Z,59.96
2018-07-01T05:17:05.742Z,60.05
2018-07-01T05:18:05.747Z,60.15
2018-07-01T05:19:05.729Z,59.67
2018-07-01T05:20:05.745Z,60.53
2018-07-01T05:21:05.764Z,59.77
2018-07-01T05:22:05.791Z,59.96
2018-07-01T05:23:05.802Z,60.18
2018-07-01T05:24:05.822Z,60.28
2018-07-01T05:25:05.845Z,60.47
2018-07-01T05:26:05.866Z,58.70
2018-07-01T05:27:05.885Z,55.07
2018-07-01T05:28:05.906Z,51.12
2018-07-01T05:29:05.932Z,48.30
2018-07-01T05:30:05.949Z,46.10
2018-07-01T05:31:05.966Z,44.31
2018-07-01T05:32:05.988Z,42.28
2018-07-01T05:33:06.015Z,42.13
2018-07-01T05:34:06.036Z,41.58
2018-07-01T05:35:06.058Z,40.61
2018-07-01T05:36:06.082Z,39.86
2018-07-01T05:37:06.105Z,38.91
2018-07-01T05:38:06.129Z,38.12
2018-07-01T05:39:06.155Z,38.13
2018-07-01T05:40:06.177Z,38.60
2018-07-01T05:41:06.198Z,39.18
2018-07-01T05:42:06.230Z,39.18
2018-07-01T05:43:06.253Z,38.52
2018-07-01T05:44:06.284Z,39.29
2018-07-01T05:45:06.304Z,38.15
2018-07-01T05:46:06.333Z,38.13
2018-07-01T05:47:06.359Z,38.15
2018-07-01T05:48:06.383Z,37.76
2018-07-01T05:49:06.411Z,37.30
2018-07-01T05:50:06.441Z,37.01
2018-07-01T05:51:06.467Z,37.10
2018-07-01T05:52:06.492Z,37.01
2018-07-01T05:53:06.522Z,37.57
2018-07-01T05:54:06.547Z,37.47
2018-07-01T05:55:06.578Z,37.66
2018-07-01T05:56:06.606Z,36.60
2018-07-01T05:57:06.657Z,36.50
2018-07-01T05:58:06.661Z,37.01
2018-07-01T05:59:06.688Z,37.10
2018-07-01T06:00:06.717Z,37.12
2018-07-01T06:01:06.747Z,37.78
2018-07-01T06:02:06.778Z,37.10
2018-07-01T06:03:06.804Z,37.01
2018-07-01T06:04:06.830Z,36.24
2018-07-01T06:05:06.864Z,35.68
2018-07-01T06:06:06.892Z,35.78
2018-07-01T06:07:06.920Z,35.49
2018-07-01T06:08:06.953Z,34.90
2018-07-01T06:09:06.987Z,35.58
2018-07-01T06:10:07.013Z,35.39
2018-07-01T06:11:07.034Z,35.19
2018-07-01T06:12:07.070Z,35.10
2018-07-01T06:13:07.095Z,35.39
2018-07-01T06:14:07.170Z,35.78
2018-07-01T06:15:07.153Z,35.29
2018-07-01T06:16:07.189Z,34.90
2018-07-01T06:17:07.224Z,35.02
2018-07-01T06:18:07.248Z,34.24
2018-07-01T06:19:07.276Z,32.79
2018-07-01T06:20:07.307Z,33.93
2018-07-01T06:21:07.339Z,34.32
2018-07-01T06:22:07.368Z,33.09
2018-07-01T06:23:07.405Z,32.59
2018-07-01T06:24:07.428Z,32.29
2018-07-01T06:25:07.458Z,31.73
2018-07-01T06:26:07.490Z,31.93
2018-07-01T06:27:07.517Z,31.76
2018-07-01T06:28:07.558Z,32.03
2018-07-01T06:29:07.583Z,32.05
2018-07-01T06:30:07.608Z,31.54
2018-07-01T06:31:07.638Z,31.43
2018-07-01T06:32:07.672Z,31.41
2018-07-01T06:33:07.705Z,30.93
2018-07-01T06:34:07.733Z,31.61
2018-07-01T06:35:07.759Z,31.63
2018-07-01T06:36:07.793Z,31.54
2018-07-01T06:37:07.822Z,31.35
2018-07-01T06:38:07.856Z,31.35
2018-07-01T06:39:07.884Z,30.65
2018-07-01T06:40:07.917Z,30.78
2018-07-01T06:41:07.941Z,30.08
2018-07-01T06:42:07.973Z,30.21
2018-07-01T06:43:08.006Z,30.49
2018-07-01T06:44:08.038Z,30.68
2018-07-01T06:45:08.075Z,31.35
2018-07-01T06:46:08.098Z,31.64
2018-07-01T06:47:08.127Z,30.67
2018-07-01T06:48:08.162Z,30.57
2018-07-01T06:49:08.194Z,31.54
2018-07-01T06:50:08.222Z,31.64
2018-07-01T06:51:08.251Z,31.16
2018-07-01T06:52:08.281Z,31.16
2018-07-01T06:53:08.314Z,31.54
2018-07-01T06:54:08.343Z,31.54
2018-07-01T06:55:08.370Z,31.34
2018-07-01T06:56:08.405Z,31.24
2018-07-01T06:57:08.435Z,31.61
2018-07-01T06:58:08.469Z,31.71
2018-07-01T06:59:08.511Z,31.41
2018-07-01T07:00:08.541Z,31.50
2018-07-01T07:01:08.556Z,31.98
2018-07-01T07:02:08.589Z,31.90
2018-07-01T07:03:08.629Z,32.08
2018-07-01T07:04:08.651Z,31.77
2018-07-01T07:05:08.680Z,32.28
2018-07-01T07:06:08.708Z,32.37
2018-07-01T07:07:08.743Z,32.26
2018-07-01T07:08:08.882Z,32.57
2018-07-01T07:09:08.800Z,31.98
2018-07-01T07:10:08.833Z,32.57
2018-07-01T07:11:08.857Z,31.88
2018-07-01T07:12:08.890Z,31.53
2018-07-01T07:13:08.918Z,30.75
2018-07-01T07:14:08.952Z,30.74
2018-07-01T07:15:08.990Z,31.50
2018-07-01T07:16:09.063Z,31.40
2018-07-01T07:17:09.040Z,31.13
2018-07-01T07:18:09.076Z,30.64
2018-07-01T07:19:09.102Z,31.90
2018-07-01T07:20:09.129Z,31.70
2018-07-01T07:21:09.166Z,31.60
2018-07-01T07:22:09.190Z,32.24
2018-07-01T07:23:09.219Z,32.34
2018-07-01T07:24:09.247Z,32.45
2018-07-01T07:25:09.277Z,32.84
2018-07-01T07:26:09.311Z,32.08
2018-07-01T07:27:09.337Z,32.47
2018-07-01T07:28:09.368Z,32.05
2018-07-01T07:29:09.400Z,32.45
2018-07-01T07:30:09.425Z,32.57
2018-07-01T07:31:09.454Z,32.45
2018-07-01T07:32:09.488Z,32.39
2018-07-01T07:33:09.515Z,32.39
2018-07-01T07:34:09.544Z,32.37
2018-07-01T07:35:09.573Z,32.28
2018-07-01T07:36:09.602Z,32.29
2018-07-01T07:37:09.637Z,32.78
2018-07-01T07:38:09.664Z,32.10
2018-07-01T07:39:09.696Z,31.71
2018-07-01T07:40:09.726Z,31.87
2018-07-01T07:41:09.748Z,32.28
2018-07-01T07:42:09.778Z,32.86
2018-07-01T07:43:09.812Z,33.07
2018-07-01T07:44:09.841Z,32.68
2018-07-01T07:45:09.901Z,33.20
2018-07-01T07:46:09.904Z,31.92
2018-07-01T07:47:09.927Z,31.43
2018-07-01T07:48:09.957Z,31.43
2018-07-01T07:49:09.984Z,31.40
2018-07-01T07:50:10.017Z,31.85
2018-07-01T07:51:10.043Z,33.04
2018-07-01T07:52:10.137Z,32.94
2018-07-01T07:53:10.104Z,33.12
2018-07-01T07:54:10.130Z,33.49
2018-07-01T07:55:10.163Z,33.49
2018-07-01T07:56:10.190Z,33.29
2018-07-01T07:57:10.220Z,33.70
2018-07-01T07:58:10.250Z,33.70
2018-07-01T07:59:10.277Z,33.31
2018-07-01T08:00:10.306Z,33.12
2018-07-01T08:01:10.336Z,33.80
2018-07-01T08:02:10.367Z,34.36
2018-07-01T08:03:10.398Z,34.17
2018-07-01T08:04:10.423Z,33.88
2018-07-01T08:05:10.455Z,34.17
2018-07-01T08:06:10.479Z,33.90
2018-07-01T08:07:10.510Z,33.90
2018-07-01T08:08:10.540Z,33.62
2018-07-01T08:09:10.595Z,33.91
2018-07-01T08:10:10.596Z,33.12
2018-07-01T08:11:10.621Z,33.69
2018-07-01T08:12:10.650Z,33.39
2018-07-01T08:13:10.691Z,33.70
2018-07-01T08:14:10.708Z,34.46
2018-07-01T08:15:10.735Z,34.95
2018-07-01T08:16:10.768Z,34.53
2018-07-01T08:17:10.851Z,34.64
2018-07-01T08:18:10.819Z,35.30
2018-07-01T08:19:10.845Z,35.59
2018-07-01T08:20:10.877Z,35.13
2018-07-01T08:21:10.904Z,35.51
2018-07-01T08:22:10.932Z,36.10
2018-07-01T08:23:10.961Z,35.32
2018-07-01T08:24:10.986Z,35.13
2018-07-01T08:25:11.016Z,35.49
2018-07-01T08:26:11.044Z,36.08
2018-07-01T08:27:11.074Z,36.87
2018-07-01T08:28:11.100Z,35.61
2018-07-01T08:29:11.127Z,35.01
2018-07-01T08:30:11.151Z,35.69
2018-07-01T08:31:11.184Z,35.30
2018-07-01T08:32:11.211Z,36.56
2018-07-01T08:33:11.244Z,36.18
2018-07-01T08:34:11.264Z,36.36
2018-07-01T08:35:11.292Z,36.66
2018-07-01T08:36:11.318Z,36.44
2018-07-01T08:37:11.346Z,36.16
2018-07-01T08:38:11.379Z,36.14
2018-07-01T08:39:11.400Z,37.01
2018-07-01T08:40:11.429Z,36.62
2018-07-01T08:41:11.453Z,37.88
2018-07-01T08:42:11.533Z,37.40
2018-07-01T08:43:11.516Z,36.83
2018-07-01T08:44:11.547Z,36.52
2018-07-01T08:45:11.561Z,36.82
2018-07-01T08:46:11.614Z,36.52
2018-07-01T08:47:11.622Z,36.41
2018-07-01T08:48:11.637Z,37.28
2018-07-01T08:49:11.667Z,37.19
2018-07-01T08:50:11.694Z,37.57
2018-07-01T08:51:11.725Z,37.69
2018-07-01T08:52:11.747Z,37.69
2018-07-01T08:53:11.771Z,38.87
2018-07-01T08:54:11.801Z,38.09
2018-07-01T08:55:11.835Z,37.05
2018-07-01T08:56:11.852Z,35.78
2018-07-01T08:57:11.876Z,36.18
2018-07-01T08:58:11.904Z,35.88
2018-07-01T08:59:11.927Z,35.88
2018-07-01T09:00:11.955Z,37.51
2018-07-01T09:01:11.981Z,36.36
2018-07-01T09:02:12.003Z,36.16
2018-07-01T09:03:12.032Z,37.03
2018-07-01T09:04:12.064Z,36.54
2018-07-01T09:05:12.084Z,35.86
2018-07-01T09:06:12.110Z,36.44
2018-07-01T09:07:12.145Z,36.64
2018-07-01T09:08:12.157Z,35.77
2018-07-01T09:09:12.185Z,35.86
2018-07-01T09:10:12.223Z,35.86
2018-07-01T09:11:12.237Z,35.67
2018-07-01T09:12:12.265Z,35.67
2018-07-01T09:13:12.288Z,35.96
2018-07-01T09:14:12.314Z,36.74
2018-07-01T09:15:12.338Z,35.67
2018-07-01T09:16:12.363Z,35.86
2018-07-01T09:17:12.416Z,35.46
2018-07-01T09:18:12.418Z,36.62
2018-07-01T09:19:12.442Z,36.35
2018-07-01T09:20:12.465Z,36.44
2018-07-01T09:21:12.490Z,35.86
2018-07-01T09:22:12.519Z,35.19
2018-07-01T09:23:12.537Z,35.86
2018-07-01T09:24:12.567Z,35.96
2018-07-01T09:25:12.590Z,35.57
2018-07-01T09:26:12.616Z,35.09
2018-07-01T09:27:12.636Z,35.38
2018-07-01T09:28:12.662Z,35.67
2018-07-01T09:29:12.691Z,35.09
2018-07-01T09:30:12.715Z,35.48
2018-07-01T09:31:12.740Z,35.48
2018-07-01T09:32:12.767Z,35.38
2018-07-01T09:33:12.789Z,35.85
2018-07-01T09:34:12.812Z,34.99
2018-07-01T09:35:12.840Z,35.38
2018-07-01T09:36:12.866Z,35.86
2018-07-01T09:37:12.891Z,36.35
2018-07-01T09:38:12.916Z,36.25
2018-07-01T09:39:12.939Z,36.93
2018-07-01T09:40:12.965Z,36.54
2018-07-01T09:41:12.994Z,35.69
2018-07-01T09:42:13.016Z,35.19
2018-07-01T09:43:13.040Z,34.70
2018-07-01T09:44:13.063Z,35.19
2018-07-01T09:45:13.091Z,35.48
2018-07-01T09:46:13.115Z,37.03
2018-07-01T09:47:13.141Z,35.49
2018-07-01T09:48:13.166Z,35.49
2018-07-01T09:49:13.190Z,35.78
2018-07-01T09:50:13.227Z,35.40
2018-07-01T09:51:13.242Z,35.21
2018-07-01T09:52:13.268Z,35.40
2018-07-01T09:53:13.289Z,35.61
2018-07-01T09:54:13.314Z,34.62
2018-07-01T09:55:13.345Z,35.40
2018-07-01T09:56:13.363Z,34.23
2018-07-01T09:57:13.390Z,35.01
2018-07-01T09:58:13.412Z,34.23
2018-07-01T09:59:13.441Z,33.44
2018-07-01T10:00:13.467Z,34.80
2018-07-01T10:01:13.492Z,34.70
2018-07-01T10:02:13.516Z,34.99
2018-07-01T10:03:13.539Z,35.01
2018-07-01T10:04:13.566Z,34.04
2018-07-01T10:05:13.589Z,33.94
2018-07-01T10:06:13.630Z,33.44
2018-07-01T10:07:13.641Z,33.25
2018-07-01T10:08:13.664Z,34.22
2018-07-01T10:09:13.690Z,33.44
2018-07-01T10:10:13.715Z,33.84
2018-07-01T10:11:13.737Z,34.33
2018-07-01T10:12:13.765Z,33.34
2018-07-01T10:13:13.789Z,33.36
2018-07-01T10:14:13.813Z,33.06
2018-07-01T10:15:13.840Z,34.53
2018-07-01T10:16:13.865Z,33.56
2018-07-01T10:17:13.889Z,33.94
2018-07-01T10:18:13.913Z,33.84
2018-07-01T10:19:13.939Z,32.97
2018-07-01T10:20:13.964Z,32.78
2018-07-01T10:21:13.987Z,32.39
2018-07-01T10:22:14.020Z,32.49
2018-07-01T10:23:14.038Z,31.52
2018-07-01T10:24:14.069Z,31.99
2018-07-01T10:25:14.103Z,32.49
2018-07-01T10:26:14.116Z,32.00
2018-07-01T10:27:14.134Z,31.62
2018-07-01T10:28:14.165Z,32.49
2018-07-01T10:29:14.190Z,32.99
2018-07-01T10:30:14.214Z,31.73
2018-07-01T10:31:14.237Z,32.41
2018-07-01T10:32:14.264Z,32.62
2018-07-01T10:33:14.299Z,31.74
2018-07-01T10:34:14.313Z,31.07
2018-07-01T10:35:14.336Z,31.74
2018-07-01T10:36:14.361Z,31.53
2018-07-01T10:37:14.393Z,31.84
2018-07-01T10:38:14.413Z,32.02
2018-07-01T10:39:14.436Z,31.44
2018-07-01T10:40:14.506Z,31.55
2018-07-01T10:41:14.487Z,31.55
2018-07-01T10:42:14.513Z,30.66
2018-07-01T10:43:14.537Z,31.24
2018-07-01T10:44:14.564Z,32.42
2018-07-01T10:45:14.589Z,32.91
2018-07-01T10:46:14.613Z,33.39
2018-07-01T10:47:14.642Z,33.88
2018-07-01T10:48:14.664Z,32.13
2018-07-01T10:49:14.688Z,30.97
2018-07-01T10:50:14.714Z,31.45
2018-07-01T10:51:14.795Z,32.52
2018-07-01T10:52:14.764Z,33.01
2018-07-01T10:53:14.789Z,32.71
2018-07-01T10:54:14.815Z,31.74
2018-07-01T10:55:14.850Z,32.54
2018-07-01T10:56:14.864Z,31.95
2018-07-01T10:57:14.890Z,32.15
2018-07-01T10:58:14.916Z,31.77
2018-07-01T10:59:14.943Z,30.79
2018-07-01T11:00:14.966Z,30.50
2018-07-01T11:01:14.992Z,31.18
2018-07-01T11:02:15.018Z,31.66
2018-07-01T11:03:15.045Z,31.76
2018-07-01T11:04:15.067Z,34.30
2018-07-01T11:05:15.094Z,32.82
2018-07-01T11:06:15.256Z,31.47
2018-07-01T11:07:15.150Z,31.85
2018-07-01T11:08:15.169Z,33.23
2018-07-01T11:09:15.193Z,32.84
2018-07-01T11:10:15.222Z,30.71
2018-07-01T11:11:15.243Z,32.17
2018-07-01T11:12:15.271Z,31.77
2018-07-01T11:13:15.293Z,30.71
2018-07-01T11:14:15.321Z,30.71
2018-07-01T11:15:15.347Z,30.71
2018-07-01T11:16:15.371Z,31.48
2018-07-01T11:17:15.396Z,30.80
2018-07-01T11:18:15.424Z,30.71
2018-07-01T11:19:15.446Z,30.51
2018-07-01T11:20:15.529Z,31.68
2018-07-01T11:21:15.500Z,30.51
2018-07-01T11:22:15.525Z,31.87
2018-07-01T11:23:15.549Z,31.38
2018-07-01T11:24:15.575Z,30.71
2018-07-01T11:25:15.602Z,30.80
2018-07-01T11:26:15.627Z,31.58
2018-07-01T11:27:15.684Z,30.90
2018-07-01T11:28:15.678Z,31.38
2018-07-01T11:29:15.704Z,31.60
2018-07-01T11:30:15.728Z,32.37
2018-07-01T11:31:15.754Z,31.40
2018-07-01T11:32:15.780Z,29.54
2018-07-01T11:33:15.806Z,31.38
2018-07-01T11:34:15.831Z,30.71
2018-07-01T11:35:15.858Z,30.90
2018-07-01T11:36:15.885Z,30.12
2018-07-01T11:37:15.910Z,31.40
2018-07-01T11:38:16.050Z,31.40
2018-07-01T11:39:15.970Z,31.41
2018-07-01T11:40:15.986Z,29.65
2018-07-01T11:41:16.012Z,29.75
2018-07-01T11:42:16.038Z,30.14
2018-07-01T11:43:16.064Z,30.52
2018-07-01T11:44:16.089Z,31.50
2018-07-01T11:45:16.114Z,30.72
2018-07-01T11:46:16.138Z,30.14
2018-07-01T11:47:16.162Z,30.14
2018-07-01T11:48:16.194Z,30.24
2018-07-01T11:49:16.216Z,30.14
2018-07-01T11:50:16.241Z,30.43
2018-07-01T11:51:16.268Z,31.50
2018-07-01T11:52:16.299Z,30.52
2018-07-01T11:53:16.321Z,29.26
2018-07-01T11:54:16.343Z,30.62
2018-07-01T11:55:16.372Z,31.40
2018-07-01T11:56:16.397Z,30.35
2018-07-01T11:57:16.426Z,30.25
2018-07-01T11:58:16.455Z,29.65
2018-07-01T11:59:16.475Z,28.88
2018-07-01T12:00:16.501Z,29.26
2018-07-01T12:01:16.527Z,29.85
2018-07-01T12:02:16.552Z,30.04
2018-07-01T12:03:16.584Z,30.14
2018-07-01T12:04:16.607Z,29.46
2018-07-01T12:05:17.184Z,30.25
2018-07-01T12:06:16.657Z,29.46
2018-07-01T12:07:16.682Z,29.36
2018-07-01T12:08:16.758Z,29.36
2018-07-01T12:09:16.738Z,29.93
2018-07-01T12:10:16.756Z,29.65
2018-07-01T12:11:16.784Z,29.25
2018-07-01T12:12:16.812Z,28.86
2018-07-01T12:13:16.835Z,29.54
2018-07-01T12:14:16.862Z,29.54
2018-07-01T12:15:16.892Z,30.82
2018-07-01T12:16:16.910Z,30.04
2018-07-01T12:17:16.957Z,29.36
2018-07-01T12:18:16.967Z,30.43
2018-07-01T12:19:16.991Z,29.36
2018-07-01T12:20:17.019Z,30.82
2018-07-01T12:21:17.044Z,28.86
2018-07-01T12:22:17.070Z,29.55
2018-07-01T12:23:17.165Z,29.46
2018-07-01T12:24:17.124Z,29.55
2018-07-01T12:25:17.148Z,29.65
2018-07-01T12:26:17.176Z,30.52
2018-07-01T12:27:17.203Z,30.15
2018-07-01T12:28:17.227Z,29.76
2018-07-01T12:29:17.257Z,29.96
2018-07-01T12:30:17.280Z,29.18
2018-07-01T12:31:17.304Z,28.50
2018-07-01T12:32:17.324Z,29.38
2018-07-01T12:33:17.350Z,30.17
2018-07-01T12:34:17.378Z,28.90
2018-07-01T12:35:17.407Z,29.79
2018-07-01T12:36:17.430Z,29.11
2018-07-01T12:37:17.457Z,29.40
2018-07-01T12:38:17.483Z,29.60
2018-07-01T12:39:17.510Z,28.22
2018-07-01T12:40:17.536Z,27.05
2018-07-01T12:41:17.563Z,27.92
2018-07-01T12:42:17.625Z,27.53
2018-07-01T12:43:17.613Z,28.02
2018-07-01T12:44:17.640Z,29.08
2018-07-01T12:45:17.663Z,28.50
2018-07-01T12:46:17.692Z,27.92
2018-07-01T12:47:17.718Z,29.08
2018-07-01T12:48:17.743Z,29.88
2018-07-01T12:49:17.768Z,29.58
2018-07-01T12:50:17.795Z,29.00
2018-07-01T12:51:17.822Z,27.64
2018-07-01T12:52:17.858Z,29.68
2018-07-01T12:53:17.873Z,30.07
2018-07-01T12:54:17.901Z,26.67
2018-07-01T12:55:17.927Z,27.73
2018-07-01T12:56:18.014Z,28.43
2018-07-01T12:57:17.977Z,28.51
2018-07-01T12:58:18.007Z,27.64
2018-07-01T12:59:18.029Z,26.95
2018-07-01T13:00:18.055Z,27.73
2018-07-01T13:01:18.081Z,27.93
2018-07-01T13:02:18.108Z,28.80
2018-07-01T13:03:18.132Z,28.92
2018-07-01T13:04:18.163Z,28.04
2018-07-01T13:05:18.185Z,27.54
2018-07-01T13:06:18.208Z,27.73
2018-07-01T13:07:18.237Z,27.73
2018-07-01T13:08:18.270Z,28.50
2018-07-01T13:09:18.291Z,28.03
2018-07-01T13:10:18.315Z,27.62
2018-07-01T13:11:18.341Z,27.73
2018-07-01T13:12:18.409Z,27.54
2018-07-01T13:13:18.400Z,28.42
2018-07-01T13:14:18.428Z,27.83
2018-07-01T13:15:18.461Z,27.16
2018-07-01T13:16:18.493Z,26.47
2018-07-01T13:17:18.502Z,28.53
2018-07-01T13:18:18.530Z,27.06
2018-07-01T13:19:18.557Z,26.86
2018-07-01T13:20:18.578Z,27.64
2018-07-01T13:21:18.604Z,29.29
2018-07-01T13:22:18.626Z,27.64
2018-07-01T13:23:18.657Z,27.83
2018-07-01T13:24:18.683Z,27.75
2018-07-01T13:25:18.784Z,27.06
2018-07-01T13:26:18.735Z,27.34
2018-07-01T13:27:18.758Z,26.76
2018-07-01T13:28:18.786Z,27.73
2018-07-01T13:29:18.814Z,26.97
2018-07-01T13:30:18.843Z,27.84
2018-07-01T13:31:18.868Z,27.93
2018-07-01T13:32:18.891Z,27.75
2018-07-01T13:33:18.915Z,27.55
2018-07-01T13:34:18.946Z,28.23
2018-07-01T13:35:18.969Z,27.84
2018-07-01T13:36:19.005Z,27.16
2018-07-01T13:37:19.022Z,27.16
2018-07-01T13:38:19.052Z,26.87
2018-07-01T13:39:19.091Z,26.78
2018-07-01T13:40:19.100Z,26.58
2018-07-01T13:41:19.129Z,27.55
2018-07-01T13:42:19.154Z,26.19
2018-07-01T13:43:19.177Z,26.28
2018-07-01T13:44:19.201Z,26.18
2018-07-01T13:45:19.230Z,27.54
2018-07-01T13:46:19.290Z,28.80
2018-07-01T13:47:19.292Z,28.51
2018-07-01T13:48:19.311Z,28.80
2018-07-01T13:49:19.394Z,29.11